sensor_id;sensor_type;location;lat;lon;timestamp;P1;durP1;ratioP1;P2;durP2;ratioP2
27428;SDS011;14881;48.092;11.574;2024-03-25T00:00:35;3.03;;;2.40;;
27428;SDS011;14881;48.092;11.574;2024-03-25T00:03:01;4.93;;;2.45;;
27428;SDS011;14881;48.092;11.574;2024-03-25T00:05:27;4.15;;;2.50;;
27428;SDS011;14881;48.092;11.574;2024-03-25T00:07:53;5.32;;;2.55;;
27428;SDS011;14881;48.092;11.574;2024-03-25T00:10:22;4.95;;;2.70;;
27428;SDS011;14881;48.092;11.574;2024-03-25T00:12:48;3.08;;;2.42;;
27428;SDS011;14881;48.092;11.574;2024-03-25T00:15:18;6.53;;;2.45;;
27428;SDS011;14881;48.092;11.574;2024-03-25T00:17:45;4.35;;;2.47;;
27428;SDS011;14881;48.092;11.574;2024-03-25T00:20:12;3.67;;;2.55;;
27428;SDS011;14881;48.092;11.574;2024-03-25T00:22:38;5.30;;;2.38;;
27428;SDS011;14881;48.092;11.574;2024-03-25T00:25:05;6.50;;;2.80;;
27428;SDS011;14881;48.092;11.574;2024-03-25T00:27:33;3.63;;;2.50;;
27428;SDS011;14881;48.092;11.574;2024-03-25T00:30:00;4.93;;;2.38;;
27428;SDS011;14881;48.092;11.574;2024-03-25T00:32:26;5.38;;;2.70;;
27428;SDS011;14881;48.092;11.574;2024-03-25T00:34:53;5.97;;;2.47;;
27428;SDS011;14881;48.092;11.574;2024-03-25T00:37:19;2.60;;;2.38;;
27428;SDS011;14881;48.092;11.574;2024-03-25T00:39:45;3.30;;;2.30;;
27428;SDS011;14881;48.092;11.574;2024-03-25T00:42:12;5.47;;;2.80;;
27428;SDS011;14881;48.092;11.574;2024-03-25T00:44:40;3.58;;;2.50;;
27428;SDS011;14881;48.092;11.574;2024-03-25T00:47:06;3.17;;;2.40;;
27428;SDS011;14881;48.092;11.574;2024-03-25T00:49:32;5.13;;;2.90;;
27428;SDS011;14881;48.092;11.574;2024-03-25T00:52:00;5.00;;;2.47;;
27428;SDS011;14881;48.092;11.574;2024-03-25T00:54:26;3.13;;;2.70;;
27428;SDS011;14881;48.092;11.574;2024-03-25T00:56:52;5.72;;;2.53;;
27428;SDS011;14881;48.092;11.574;2024-03-25T00:59:18;7.78;;;2.97;;
27428;SDS011;14881;48.092;11.574;2024-03-25T01:01:47;4.90;;;2.80;;
27428;SDS011;14881;48.092;11.574;2024-03-25T01:04:12;4.80;;;2.88;;
27428;SDS011;14881;48.092;11.574;2024-03-25T01:06:39;4.82;;;2.42;;
27428;SDS011;14881;48.092;11.574;2024-03-25T01:09:05;5.03;;;2.72;;
27428;SDS011;14881;48.092;11.574;2024-03-25T01:11:33;4.65;;;2.80;;
27428;SDS011;14881;48.092;11.574;2024-03-25T01:13:58;4.38;;;2.80;;
27428;SDS011;14881;48.092;11.574;2024-03-25T01:16:26;4.07;;;2.92;;
27428;SDS011;14881;48.092;11.574;2024-03-25T01:18:53;5.53;;;2.63;;
27428;SDS011;14881;48.092;11.574;2024-03-25T01:21:20;3.58;;;2.70;;
27428;SDS011;14881;48.092;11.574;2024-03-25T01:23:46;4.95;;;2.85;;
27428;SDS011;14881;48.092;11.574;2024-03-25T01:26:13;5.80;;;3.10;;
27428;SDS011;14881;48.092;11.574;2024-03-25T01:28:39;3.53;;;2.58;;
27428;SDS011;14881;48.092;11.574;2024-03-25T01:31:05;4.78;;;2.90;;
27428;SDS011;14881;48.092;11.574;2024-03-25T01:33:31;5.28;;;2.90;;
27428;SDS011;14881;48.092;11.574;2024-03-25T01:35:59;3.63;;;2.70;;
27428;SDS011;14881;48.092;11.574;2024-03-25T01:38:25;4.53;;;2.97;;
27428;SDS011;14881;48.092;11.574;2024-03-25T01:40:52;5.18;;;2.55;;
27428;SDS011;14881;48.092;11.574;2024-03-25T01:43:18;3.15;;;2.65;;
27428;SDS011;14881;48.092;11.574;2024-03-25T01:45:45;3.50;;;2.70;;
27428;SDS011;14881;48.092;11.574;2024-03-25T01:48:10;4.45;;;2.50;;
27428;SDS011;14881;48.092;11.574;2024-03-25T01:50:40;5.13;;;2.53;;
27428;SDS011;14881;48.092;11.574;2024-03-25T01:53:10;3.60;;;2.90;;
27428;SDS011;14881;48.092;11.574;2024-03-25T01:55:38;4.75;;;2.50;;
27428;SDS011;14881;48.092;11.574;2024-03-25T01:58:05;4.93;;;2.45;;
27428;SDS011;14881;48.092;11.574;2024-03-25T02:00:32;2.80;;;2.38;;
27428;SDS011;14881;48.092;11.574;2024-03-25T02:02:58;3.67;;;2.58;;
27428;SDS011;14881;48.092;11.574;2024-03-25T02:05:25;4.30;;;2.75;;
27428;SDS011;14881;48.092;11.574;2024-03-25T02:07:51;3.15;;;2.20;;
27428;SDS011;14881;48.092;11.574;2024-03-25T02:10:20;6.35;;;2.70;;
27428;SDS011;14881;48.092;11.574;2024-03-25T02:12:47;2.70;;;2.28;;
27428;SDS011;14881;48.092;11.574;2024-03-25T02:15:14;3.10;;;2.22;;
27428;SDS011;14881;48.092;11.574;2024-03-25T02:17:40;4.65;;;2.80;;
27428;SDS011;14881;48.092;11.574;2024-03-25T02:20:08;4.30;;;2.33;;
27428;SDS011;14881;48.092;11.574;2024-03-25T02:22:35;3.33;;;2.80;;
27428;SDS011;14881;48.092;11.574;2024-03-25T02:25:03;3.63;;;2.30;;
27428;SDS011;14881;48.092;11.574;2024-03-25T02:27:33;3.50;;;2.30;;
27428;SDS011;14881;48.092;11.574;2024-03-25T02:30:02;3.05;;;2.58;;
27428;SDS011;14881;48.092;11.574;2024-03-25T02:32:29;3.95;;;2.28;;
27428;SDS011;14881;48.092;11.574;2024-03-25T02:34:56;4.07;;;3.05;;
27428;SDS011;14881;48.092;11.574;2024-03-25T02:37:22;2.70;;;2.50;;
27428;SDS011;14881;48.092;11.574;2024-03-25T02:39:49;4.18;;;2.47;;
27428;SDS011;14881;48.092;11.574;2024-03-25T02:42:15;3.38;;;2.70;;
27428;SDS011;14881;48.092;11.574;2024-03-25T02:44:43;3.63;;;2.42;;
27428;SDS011;14881;48.092;11.574;2024-03-25T02:47:10;6.45;;;3.17;;
27428;SDS011;14881;48.092;11.574;2024-03-25T02:49:37;4.95;;;3.08;;
27428;SDS011;14881;48.092;11.574;2024-03-25T02:52:08;5.72;;;2.83;;
27428;SDS011;14881;48.092;11.574;2024-03-25T02:54:35;4.32;;;3.20;;
27428;SDS011;14881;48.092;11.574;2024-03-25T02:57:01;4.95;;;3.20;;
27428;SDS011;14881;48.092;11.574;2024-03-25T02:59:27;4.80;;;3.00;;
27428;SDS011;14881;48.092;11.574;2024-03-25T03:01:55;7.60;;;3.45;;
27428;SDS011;14881;48.092;11.574;2024-03-25T03:04:21;4.07;;;3.03;;
27428;SDS011;14881;48.092;11.574;2024-03-25T03:06:47;4.20;;;3.05;;
27428;SDS011;14881;48.092;11.574;2024-03-25T03:09:14;5.00;;;3.20;;
27428;SDS011;14881;48.092;11.574;2024-03-25T03:11:40;8.48;;;3.22;;
27428;SDS011;14881;48.092;11.574;2024-03-25T03:14:08;4.93;;;3.15;;
27428;SDS011;14881;48.092;11.574;2024-03-25T03:16:34;4.93;;;3.22;;
27428;SDS011;14881;48.092;11.574;2024-03-25T03:19:02;6.70;;;3.72;;
27428;SDS011;14881;48.092;11.574;2024-03-25T03:21:28;5.82;;;3.08;;
27428;SDS011;14881;48.092;11.574;2024-03-25T03:23:56;7.18;;;3.50;;
27428;SDS011;14881;48.092;11.574;2024-03-25T03:26:22;6.47;;;2.97;;
27428;SDS011;14881;48.092;11.574;2024-03-25T03:28:52;5.07;;;2.95;;
27428;SDS011;14881;48.092;11.574;2024-03-25T03:31:18;5.97;;;3.53;;
27428;SDS011;14881;48.092;11.574;2024-03-25T03:33:46;5.22;;;3.05;;
27428;SDS011;14881;48.092;11.574;2024-03-25T03:36:14;6.55;;;3.47;;
27428;SDS011;14881;48.092;11.574;2024-03-25T03:38:41;3.30;;;3.00;;
27428;SDS011;14881;48.092;11.574;2024-03-25T03:41:07;4.35;;;2.88;;
27428;SDS011;14881;48.092;11.574;2024-03-25T03:43:36;4.65;;;3.42;;
27428;SDS011;14881;48.092;11.574;2024-03-25T03:46:02;4.05;;;3.10;;
27428;SDS011;14881;48.092;11.574;2024-03-25T03:48:31;4.80;;;2.85;;
27428;SDS011;14881;48.092;11.574;2024-03-25T03:50:57;4.60;;;3.08;;
27428;SDS011;14881;48.092;11.574;2024-03-25T03:53:25;5.97;;;3.15;;
27428;SDS011;14881;48.092;11.574;2024-03-25T03:55:54;4.55;;;2.90;;
27428;SDS011;14881;48.092;11.574;2024-03-25T03:58:21;5.28;;;3.35;;
27428;SDS011;14881;48.092;11.574;2024-03-25T04:00:47;7.78;;;3.70;;
27428;SDS011;14881;48.092;11.574;2024-03-25T04:03:14;3.35;;;3.05;;
27428;SDS011;14881;48.092;11.574;2024-03-25T04:05:39;4.78;;;3.25;;
27428;SDS011;14881;48.092;11.574;2024-03-25T04:08:06;6.20;;;3.15;;
27428;SDS011;14881;48.092;11.574;2024-03-25T04:10:34;6.38;;;3.38;;
27428;SDS011;14881;48.092;11.574;2024-03-25T04:13:02;5.28;;;3.30;;
27428;SDS011;14881;48.092;11.574;2024-03-25T04:15:28;5.57;;;3.20;;
27428;SDS011;14881;48.092;11.574;2024-03-25T04:17:54;7.70;;;3.72;;
27428;SDS011;14881;48.092;11.574;2024-03-25T04:20:21;5.88;;;3.50;;
27428;SDS011;14881;48.092;11.574;2024-03-25T04:22:48;9.02;;;4.03;;
27428;SDS011;14881;48.092;11.574;2024-03-25T04:25:14;6.65;;;3.63;;
27428;SDS011;14881;48.092;11.574;2024-03-25T04:27:42;5.35;;;3.30;;
27428;SDS011;14881;48.092;11.574;2024-03-25T04:30:08;3.95;;;3.28;;
27428;SDS011;14881;48.092;11.574;2024-03-25T04:32:37;8.35;;;3.50;;
27428;SDS011;14881;48.092;11.574;2024-03-25T04:35:04;5.50;;;3.30;;
27428;SDS011;14881;48.092;11.574;2024-03-25T04:37:31;5.05;;;2.95;;
27428;SDS011;14881;48.092;11.574;2024-03-25T04:39:57;5.50;;;3.28;;
27428;SDS011;14881;48.092;11.574;2024-03-25T04:42:23;5.40;;;3.80;;
27428;SDS011;14881;48.092;11.574;2024-03-25T04:44:50;6.25;;;3.40;;
27428;SDS011;14881;48.092;11.574;2024-03-25T04:47:16;7.25;;;3.83;;
27428;SDS011;14881;48.092;11.574;2024-03-25T04:49:43;3.90;;;3.42;;
27428;SDS011;14881;48.092;11.574;2024-03-25T04:52:09;7.93;;;3.70;;
27428;SDS011;14881;48.092;11.574;2024-03-25T04:54:35;7.55;;;3.65;;
27428;SDS011;14881;48.092;11.574;2024-03-25T04:57:01;7.30;;;3.38;;
27428;SDS011;14881;48.092;11.574;2024-03-25T04:59:27;6.05;;;3.22;;
27428;SDS011;14881;48.092;11.574;2024-03-25T05:01:54;3.55;;;3.10;;
27428;SDS011;14881;48.092;11.574;2024-03-25T05:04:20;7.10;;;3.65;;
27428;SDS011;14881;48.092;11.574;2024-03-25T05:06:46;5.88;;;3.35;;
27428;SDS011;14881;48.092;11.574;2024-03-25T05:09:12;4.57;;;3.03;;
27428;SDS011;14881;48.092;11.574;2024-03-25T05:11:38;4.10;;;3.25;;
27428;SDS011;14881;48.092;11.574;2024-03-25T05:14:04;5.00;;;2.90;;
27428;SDS011;14881;48.092;11.574;2024-03-25T05:16:30;5.45;;;3.20;;
27428;SDS011;14881;48.092;11.574;2024-03-25T05:18:57;4.47;;;3.15;;
27428;SDS011;14881;48.092;11.574;2024-03-25T05:21:23;5.25;;;3.40;;
27428;SDS011;14881;48.092;11.574;2024-03-25T05:23:49;6.93;;;3.65;;
27428;SDS011;14881;48.092;11.574;2024-03-25T05:26:15;6.00;;;3.25;;
27428;SDS011;14881;48.092;11.574;2024-03-25T05:28:40;7.82;;;3.42;;
27428;SDS011;14881;48.092;11.574;2024-03-25T05:31:07;5.45;;;3.40;;
27428;SDS011;14881;48.092;11.574;2024-03-25T05:33:33;7.30;;;3.70;;
27428;SDS011;14881;48.092;11.574;2024-03-25T05:36:00;5.18;;;3.45;;
27428;SDS011;14881;48.092;11.574;2024-03-25T05:38:26;5.57;;;3.03;;
27428;SDS011;14881;48.092;11.574;2024-03-25T05:40:53;7.53;;;3.25;;
27428;SDS011;14881;48.092;11.574;2024-03-25T05:43:19;8.90;;;3.85;;
27428;SDS011;14881;48.092;11.574;2024-03-25T05:45:50;5.47;;;3.20;;
27428;SDS011;14881;48.092;11.574;2024-03-25T05:48:16;4.93;;;3.13;;
27428;SDS011;14881;48.092;11.574;2024-03-25T05:50:42;6.18;;;3.53;;
27428;SDS011;14881;48.092;11.574;2024-03-25T05:53:09;7.68;;;4.07;;
27428;SDS011;14881;48.092;11.574;2024-03-25T05:55:35;5.75;;;3.80;;
27428;SDS011;14881;48.092;11.574;2024-03-25T05:58:01;5.97;;;3.33;;
27428;SDS011;14881;48.092;11.574;2024-03-25T06:00:27;7.90;;;3.63;;
27428;SDS011;14881;48.092;11.574;2024-03-25T06:02:53;6.82;;;3.50;;
27428;SDS011;14881;48.092;11.574;2024-03-25T06:05:19;6.25;;;3.55;;
27428;SDS011;14881;48.092;11.574;2024-03-25T06:07:45;6.13;;;3.65;;
27428;SDS011;14881;48.092;11.574;2024-03-25T06:10:12;6.45;;;3.08;;
27428;SDS011;14881;48.092;11.574;2024-03-25T06:12:38;5.43;;;3.53;;
27428;SDS011;14881;48.092;11.574;2024-03-25T06:15:05;6.85;;;3.25;;
27428;SDS011;14881;48.092;11.574;2024-03-25T06:17:31;8.73;;;3.80;;
27428;SDS011;14881;48.092;11.574;2024-03-25T06:19:57;4.40;;;3.10;;
27428;SDS011;14881;48.092;11.574;2024-03-25T06:22:23;4.60;;;3.20;;
27428;SDS011;14881;48.092;11.574;2024-03-25T06:24:49;4.13;;;3.00;;
27428;SDS011;14881;48.092;11.574;2024-03-25T06:27:16;7.68;;;3.50;;
27428;SDS011;14881;48.092;11.574;2024-03-25T06:29:42;6.05;;;3.63;;
27428;SDS011;14881;48.092;11.574;2024-03-25T06:32:09;5.88;;;3.20;;
27428;SDS011;14881;48.092;11.574;2024-03-25T06:34:53;6.93;;;3.45;;
27428;SDS011;14881;48.092;11.574;2024-03-25T06:37:19;6.85;;;3.78;;
27428;SDS011;14881;48.092;11.574;2024-03-25T06:39:45;5.28;;;3.05;;
27428;SDS011;14881;48.092;11.574;2024-03-25T06:42:11;6.97;;;3.25;;
27428;SDS011;14881;48.092;11.574;2024-03-25T06:44:38;7.18;;;3.28;;
27428;SDS011;14881;48.092;11.574;2024-03-25T06:47:04;6.50;;;3.25;;
27428;SDS011;14881;48.092;11.574;2024-03-25T06:49:30;8.27;;;3.53;;
27428;SDS011;14881;48.092;11.574;2024-03-25T06:51:56;6.65;;;3.65;;
27428;SDS011;14881;48.092;11.574;2024-03-25T06:54:22;6.25;;;3.17;;
27428;SDS011;14881;48.092;11.574;2024-03-25T06:56:48;5.30;;;2.85;;
27428;SDS011;14881;48.092;11.574;2024-03-25T06:59:14;7.63;;;3.30;;
27428;SDS011;14881;48.092;11.574;2024-03-25T07:01:41;3.13;;;2.65;;
27428;SDS011;14881;48.092;11.574;2024-03-25T07:04:07;6.40;;;3.15;;
27428;SDS011;14881;48.092;11.574;2024-03-25T07:06:33;5.65;;;3.17;;
27428;SDS011;14881;48.092;11.574;2024-03-25T07:08:59;4.35;;;2.67;;
27428;SDS011;14881;48.092;11.574;2024-03-25T07:11:24;7.85;;;3.30;;
27428;SDS011;14881;48.092;11.574;2024-03-25T07:13:50;4.57;;;2.80;;
27428;SDS011;14881;48.092;11.574;2024-03-25T07:16:16;4.35;;;2.70;;
27428;SDS011;14881;48.092;11.574;2024-03-25T07:18:43;5.13;;;2.70;;
27428;SDS011;14881;48.092;11.574;2024-03-25T07:21:09;5.90;;;2.90;;
27428;SDS011;14881;48.092;11.574;2024-03-25T07:23:35;6.43;;;3.63;;
27428;SDS011;14881;48.092;11.574;2024-03-25T07:26:01;7.65;;;3.65;;
27428;SDS011;14881;48.092;11.574;2024-03-25T07:28:27;8.18;;;2.97;;
27428;SDS011;14881;48.092;11.574;2024-03-25T07:30:53;4.50;;;2.97;;
27428;SDS011;14881;48.092;11.574;2024-03-25T07:33:19;4.80;;;2.95;;
27428;SDS011;14881;48.092;11.574;2024-03-25T07:35:46;5.55;;;2.97;;
27428;SDS011;14881;48.092;11.574;2024-03-25T07:38:15;5.28;;;2.90;;
27428;SDS011;14881;48.092;11.574;2024-03-25T07:40:41;4.65;;;2.67;;
27428;SDS011;14881;48.092;11.574;2024-03-25T07:43:06;6.22;;;2.90;;
27428;SDS011;14881;48.092;11.574;2024-03-25T07:45:32;6.32;;;2.80;;
27428;SDS011;14881;48.092;11.574;2024-03-25T07:47:58;5.05;;;3.35;;
27428;SDS011;14881;48.092;11.574;2024-03-25T07:50:24;7.72;;;3.30;;
27428;SDS011;14881;48.092;11.574;2024-03-25T07:52:51;5.03;;;2.83;;
27428;SDS011;14881;48.092;11.574;2024-03-25T07:55:17;7.55;;;3.25;;
27428;SDS011;14881;48.092;11.574;2024-03-25T07:57:43;5.47;;;2.65;;
27428;SDS011;14881;48.092;11.574;2024-03-25T08:00:09;5.68;;;3.50;;
27428;SDS011;14881;48.092;11.574;2024-03-25T08:02:36;5.50;;;2.63;;
27428;SDS011;14881;48.092;11.574;2024-03-25T08:05:01;5.22;;;2.53;;
27428;SDS011;14881;48.092;11.574;2024-03-25T08:07:28;5.13;;;3.10;;
27428;SDS011;14881;48.092;11.574;2024-03-25T08:09:55;7.20;;;3.25;;
27428;SDS011;14881;48.092;11.574;2024-03-25T08:12:21;7.50;;;2.97;;
27428;SDS011;14881;48.092;11.574;2024-03-25T08:14:47;9.20;;;3.20;;
27428;SDS011;14881;48.092;11.574;2024-03-25T08:17:13;7.30;;;3.58;;
27428;SDS011;14881;48.092;11.574;2024-03-25T08:19:39;6.53;;;3.30;;
27428;SDS011;14881;48.092;11.574;2024-03-25T08:22:05;4.32;;;2.78;;
27428;SDS011;14881;48.092;11.574;2024-03-25T08:24:30;5.75;;;2.92;;
27428;SDS011;14881;48.092;11.574;2024-03-25T08:26:58;6.40;;;2.90;;
27428;SDS011;14881;48.092;11.574;2024-03-25T08:29:24;5.40;;;2.90;;
27428;SDS011;14881;48.092;11.574;2024-03-25T08:31:50;4.35;;;2.53;;
27428;SDS011;14881;48.092;11.574;2024-03-25T08:34:15;4.22;;;2.60;;
27428;SDS011;14881;48.092;11.574;2024-03-25T08:36:41;5.25;;;3.03;;
27428;SDS011;14881;48.092;11.574;2024-03-25T08:39:07;6.43;;;2.95;;
27428;SDS011;14881;48.092;11.574;2024-03-25T08:41:33;6.22;;;3.15;;
27428;SDS011;14881;48.092;11.574;2024-03-25T08:44:00;3.80;;;2.67;;
27428;SDS011;14881;48.092;11.574;2024-03-25T08:46:26;4.05;;;2.92;;
27428;SDS011;14881;48.092;11.574;2024-03-25T08:48:52;7.45;;;3.58;;
27428;SDS011;14881;48.092;11.574;2024-03-25T08:51:18;8.73;;;2.75;;
27428;SDS011;14881;48.092;11.574;2024-03-25T08:53:44;5.95;;;2.70;;
27428;SDS011;14881;48.092;11.574;2024-03-25T08:56:10;6.97;;;2.85;;
27428;SDS011;14881;48.092;11.574;2024-03-25T08:58:36;5.20;;;3.05;;
27428;SDS011;14881;48.092;11.574;2024-03-25T09:01:03;5.55;;;2.78;;
27428;SDS011;14881;48.092;11.574;2024-03-25T09:03:29;5.30;;;2.40;;
27428;SDS011;14881;48.092;11.574;2024-03-25T09:05:55;7.30;;;2.90;;
27428;SDS011;14881;48.092;11.574;2024-03-25T09:08:20;4.43;;;2.30;;
27428;SDS011;14881;48.092;11.574;2024-03-25T09:10:46;6.82;;;2.55;;
27428;SDS011;14881;48.092;11.574;2024-03-25T09:13:28;4.88;;;2.20;;
27428;SDS011;14881;48.092;11.574;2024-03-25T09:15:54;6.32;;;2.25;;
27428;SDS011;14881;48.092;11.574;2024-03-25T09:18:21;7.68;;;2.35;;
27428;SDS011;14881;48.092;11.574;2024-03-25T09:20:47;2.60;;;2.10;;
27428;SDS011;14881;48.092;11.574;2024-03-25T09:23:13;4.22;;;2.28;;
27428;SDS011;14881;48.092;11.574;2024-03-25T09:25:39;3.97;;;1.88;;
27428;SDS011;14881;48.092;11.574;2024-03-25T09:28:05;6.28;;;2.42;;
27428;SDS011;14881;48.092;11.574;2024-03-25T09:30:32;3.33;;;2.58;;
27428;SDS011;14881;48.092;11.574;2024-03-25T09:32:58;4.72;;;1.90;;
27428;SDS011;14881;48.092;11.574;2024-03-25T09:35:25;5.88;;;1.80;;
27428;SDS011;14881;48.092;11.574;2024-03-25T09:37:51;5.95;;;2.25;;
27428;SDS011;14881;48.092;11.574;2024-03-25T09:40:17;4.03;;;2.10;;
27428;SDS011;14881;48.092;11.574;2024-03-25T09:42:46;4.47;;;2.00;;
27428;SDS011;14881;48.092;11.574;2024-03-25T09:45:15;5.15;;;2.03;;
27428;SDS011;14881;48.092;11.574;2024-03-25T09:47:43;2.45;;;1.83;;
27428;SDS011;14881;48.092;11.574;2024-03-25T09:50:12;4.38;;;2.00;;
27428;SDS011;14881;48.092;11.574;2024-03-25T09:52:40;2.88;;;1.70;;
27428;SDS011;14881;48.092;11.574;2024-03-25T09:55:06;2.95;;;1.80;;
27428;SDS011;14881;48.092;11.574;2024-03-25T09:57:33;2.92;;;1.90;;
27428;SDS011;14881;48.092;11.574;2024-03-25T09:59:59;2.75;;;1.85;;
27428;SDS011;14881;48.092;11.574;2024-03-25T10:02:26;2.67;;;1.70;;
27428;SDS011;14881;48.092;11.574;2024-03-25T10:04:54;2.05;;;1.52;;
27428;SDS011;14881;48.092;11.574;2024-03-25T10:07:21;4.00;;;1.77;;
27428;SDS011;14881;48.092;11.574;2024-03-25T10:09:49;4.30;;;1.52;;
27428;SDS011;14881;48.092;11.574;2024-03-25T10:12:15;3.58;;;1.77;;
27428;SDS011;14881;48.092;11.574;2024-03-25T10:14:41;2.85;;;1.60;;
27428;SDS011;14881;48.092;11.574;2024-03-25T10:17:07;3.15;;;1.80;;
27428;SDS011;14881;48.092;11.574;2024-03-25T10:19:33;2.42;;;1.60;;
27428;SDS011;14881;48.092;11.574;2024-03-25T10:22:03;2.55;;;1.67;;
27428;SDS011;14881;48.092;11.574;2024-03-25T10:24:37;5.72;;;2.10;;
27428;SDS011;14881;48.092;11.574;2024-03-25T10:27:05;2.67;;;1.70;;
27428;SDS011;14881;48.092;11.574;2024-03-25T10:29:31;2.20;;;1.60;;
27428;SDS011;14881;48.092;11.574;2024-03-25T10:31:58;5.35;;;1.70;;
27428;SDS011;14881;48.092;11.574;2024-03-25T10:34:24;4.82;;;1.70;;
27428;SDS011;14881;48.092;11.574;2024-03-25T10:36:50;3.58;;;1.67;;
27428;SDS011;14881;48.092;11.574;2024-03-25T10:39:21;1.65;;;1.55;;
27428;SDS011;14881;48.092;11.574;2024-03-25T10:41:54;2.88;;;1.80;;
27428;SDS011;14881;48.092;11.574;2024-03-25T10:44:22;4.65;;;1.80;;
27428;SDS011;14881;48.092;11.574;2024-03-25T10:46:50;4.90;;;1.85;;
27428;SDS011;14881;48.092;11.574;2024-03-25T10:49:21;2.35;;;1.63;;
27428;SDS011;14881;48.092;11.574;2024-03-25T10:51:54;2.38;;;1.58;;
27428;SDS011;14881;48.092;11.574;2024-03-25T10:54:22;2.50;;;1.40;;
27428;SDS011;14881;48.092;11.574;2024-03-25T10:56:50;3.67;;;1.90;;
27428;SDS011;14881;48.092;11.574;2024-03-25T10:59:16;2.22;;;1.40;;
27428;SDS011;14881;48.092;11.574;2024-03-25T11:01:46;3.30;;;1.75;;
27428;SDS011;14881;48.092;11.574;2024-03-25T11:04:12;2.90;;;1.40;;
27428;SDS011;14881;48.092;11.574;2024-03-25T11:06:39;2.08;;;1.50;;
27428;SDS011;14881;48.092;11.574;2024-03-25T11:09:04;3.13;;;1.60;;
27428;SDS011;14881;48.092;11.574;2024-03-25T11:11:31;1.92;;;1.48;;
27428;SDS011;14881;48.092;11.574;2024-03-25T11:13:57;1.35;;;1.25;;
27428;SDS011;14881;48.092;11.574;2024-03-25T11:16:26;4.18;;;1.48;;
27428;SDS011;14881;48.092;11.574;2024-03-25T11:18:59;2.15;;;1.35;;
27428;SDS011;14881;48.092;11.574;2024-03-25T11:21:27;5.47;;;1.70;;
27428;SDS011;14881;48.092;11.574;2024-03-25T11:23:53;3.00;;;1.40;;
27428;SDS011;14881;48.092;11.574;2024-03-25T11:26:19;3.40;;;1.90;;
27428;SDS011;14881;48.092;11.574;2024-03-25T11:28:46;3.80;;;1.67;;
27428;SDS011;14881;48.092;11.574;2024-03-25T11:31:12;1.80;;;1.42;;
27428;SDS011;14881;48.092;11.574;2024-03-25T11:33:38;2.65;;;1.52;;
27428;SDS011;14881;48.092;11.574;2024-03-25T11:36:06;2.20;;;1.38;;
27428;SDS011;14881;48.092;11.574;2024-03-25T11:38:33;3.30;;;1.85;;
27428;SDS011;14881;48.092;11.574;2024-03-25T11:40:59;3.40;;;1.50;;
27428;SDS011;14881;48.092;11.574;2024-03-25T11:43:25;3.85;;;1.70;;
27428;SDS011;14881;48.092;11.574;2024-03-25T11:45:52;2.25;;;1.38;;
27428;SDS011;14881;48.092;11.574;2024-03-25T11:48:18;2.15;;;1.30;;
27428;SDS011;14881;48.092;11.574;2024-03-25T11:50:45;3.90;;;1.85;;
27428;SDS011;14881;48.092;11.574;2024-03-25T11:53:14;3.55;;;1.70;;
27428;SDS011;14881;48.092;11.574;2024-03-25T11:55:40;2.70;;;1.67;;
27428;SDS011;14881;48.092;11.574;2024-03-25T11:58:06;2.92;;;1.80;;
27428;SDS011;14881;48.092;11.574;2024-03-25T12:00:33;2.42;;;1.50;;
27428;SDS011;14881;48.092;11.574;2024-03-25T12:02:59;2.53;;;1.70;;
27428;SDS011;14881;48.092;11.574;2024-03-25T12:05:26;2.22;;;1.30;;
27428;SDS011;14881;48.092;11.574;2024-03-25T12:07:51;2.08;;;1.30;;
27428;SDS011;14881;48.092;11.574;2024-03-25T12:10:19;4.07;;;1.50;;
27428;SDS011;14881;48.092;11.574;2024-03-25T12:13:03;2.85;;;1.70;;
27428;SDS011;14881;48.092;11.574;2024-03-25T12:15:30;3.38;;;1.38;;
27428;SDS011;14881;48.092;11.574;2024-03-25T12:17:56;2.50;;;1.20;;
27428;SDS011;14881;48.092;11.574;2024-03-25T12:20:22;2.75;;;1.30;;
27428;SDS011;14881;48.092;11.574;2024-03-25T12:22:48;1.65;;;1.42;;
27428;SDS011;14881;48.092;11.574;2024-03-25T12:25:14;3.28;;;1.48;;
27428;SDS011;14881;48.092;11.574;2024-03-25T12:27:41;2.22;;;1.30;;
27428;SDS011;14881;48.092;11.574;2024-03-25T12:30:12;3.17;;;1.50;;
27428;SDS011;14881;48.092;11.574;2024-03-25T12:32:38;1.83;;;1.30;;
27428;SDS011;14881;48.092;11.574;2024-03-25T12:35:08;1.95;;;1.40;;
27428;SDS011;14881;48.092;11.574;2024-03-25T12:37:36;2.17;;;1.30;;
27428;SDS011;14881;48.092;11.574;2024-03-25T12:40:02;1.25;;;1.15;;
27428;SDS011;14881;48.092;11.574;2024-03-25T12:42:29;3.50;;;1.33;;
27428;SDS011;14881;48.092;11.574;2024-03-25T12:44:57;2.17;;;1.40;;
27428;SDS011;14881;48.092;11.574;2024-03-25T12:47:22;2.92;;;1.20;;
27428;SDS011;14881;48.092;11.574;2024-03-25T12:49:48;2.45;;;1.45;;
27428;SDS011;14881;48.092;11.574;2024-03-25T12:52:14;1.95;;;1.35;;
27428;SDS011;14881;48.092;11.574;2024-03-25T12:54:40;3.20;;;1.23;;
27428;SDS011;14881;48.092;11.574;2024-03-25T12:57:06;1.45;;;1.35;;
27428;SDS011;14881;48.092;11.574;2024-03-25T12:59:32;2.42;;;1.33;;
27428;SDS011;14881;48.092;11.574;2024-03-25T13:02:00;1.50;;;1.13;;
27428;SDS011;14881;48.092;11.574;2024-03-25T13:04:26;3.70;;;1.88;;
27428;SDS011;14881;48.092;11.574;2024-03-25T13:06:52;2.28;;;1.40;;
27428;SDS011;14881;48.092;11.574;2024-03-25T13:09:18;1.83;;;1.10;;
27428;SDS011;14881;48.092;11.574;2024-03-25T13:11:44;1.50;;;1.08;;
27428;SDS011;14881;48.092;11.574;2024-03-25T13:14:11;1.00;;;1.00;;
27428;SDS011;14881;48.092;11.574;2024-03-25T13:16:37;1.55;;;1.10;;
27428;SDS011;14881;48.092;11.574;2024-03-25T13:19:04;3.47;;;1.33;;
27428;SDS011;14881;48.092;11.574;2024-03-25T13:21:30;3.33;;;1.20;;
27428;SDS011;14881;48.092;11.574;2024-03-25T13:23:56;2.58;;;1.55;;
27428;SDS011;14881;48.092;11.574;2024-03-25T13:26:22;3.05;;;1.20;;
27428;SDS011;14881;48.092;11.574;2024-03-25T13:28:48;1.70;;;1.30;;
27428;SDS011;14881;48.092;11.574;2024-03-25T13:31:14;3.08;;;1.30;;
27428;SDS011;14881;48.092;11.574;2024-03-25T13:33:40;1.17;;;1.05;;
27428;SDS011;14881;48.092;11.574;2024-03-25T13:36:08;1.30;;;1.20;;
27428;SDS011;14881;48.092;11.574;2024-03-25T13:38:34;3.33;;;1.23;;
27428;SDS011;14881;48.092;11.574;2024-03-25T13:41:00;1.52;;;1.23;;
27428;SDS011;14881;48.092;11.574;2024-03-25T13:43:27;1.38;;;1.10;;
27428;SDS011;14881;48.092;11.574;2024-03-25T13:45:52;1.90;;;1.13;;
27428;SDS011;14881;48.092;11.574;2024-03-25T13:48:18;2.20;;;1.20;;
27428;SDS011;14881;48.092;11.574;2024-03-25T13:50:45;1.67;;;1.40;;
27428;SDS011;14881;48.092;11.574;2024-03-25T13:53:12;3.00;;;1.42;;
27428;SDS011;14881;48.092;11.574;2024-03-25T13:55:38;1.40;;;1.30;;
27428;SDS011;14881;48.092;11.574;2024-03-25T13:58:04;1.08;;;0.98;;
27428;SDS011;14881;48.092;11.574;2024-03-25T14:00:30;2.70;;;1.40;;
27428;SDS011;14881;48.092;11.574;2024-03-25T14:02:56;2.60;;;1.20;;
27428;SDS011;14881;48.092;11.574;2024-03-25T14:05:22;2.42;;;0.93;;
27428;SDS011;14881;48.092;11.574;2024-03-25T14:07:48;2.15;;;1.08;;
27428;SDS011;14881;48.092;11.574;2024-03-25T14:10:15;2.65;;;1.30;;
27428;SDS011;14881;48.092;11.574;2024-03-25T14:12:41;2.15;;;1.30;;
27428;SDS011;14881;48.092;11.574;2024-03-25T14:15:07;3.13;;;1.20;;
27428;SDS011;14881;48.092;11.574;2024-03-25T14:17:34;1.13;;;0.90;;
27428;SDS011;14881;48.092;11.574;2024-03-25T14:20:00;4.88;;;1.10;;
27428;SDS011;14881;48.092;11.574;2024-03-25T14:22:26;1.00;;;0.88;;
27428;SDS011;14881;48.092;11.574;2024-03-25T14:24:52;2.42;;;1.13;;
27428;SDS011;14881;48.092;11.574;2024-03-25T14:27:19;2.03;;;1.17;;
27428;SDS011;14881;48.092;11.574;2024-03-25T14:29:45;6.68;;;1.40;;